TimeCDT,TemperatureF,Dew PointF,Humidity,Sea Level PressureIn,VisibilityMPH,Wind Direction,Wind SpeedMPH,Gust SpeedMPH,PrecipitationIn,Events,Conditions,WindDirDegrees,DateUTC
12:54 AM,45.0,36.0,71,30.12,10.0,South,6.9,-,N/A,,Clear,180,2013-05-13 05:54:00
1:54 AM,46.9,37.0,68,30.11,10.0,South,4.6,-,N/A,,Clear,170,2013-05-13 06:54:00
2:54 AM,48.0,37.9,68,30.11,10.0,SSE,4.6,-,N/A,,Clear,160,2013-05-13 07:54:00
3:54 AM,48.0,39.0,71,30.09,10.0,Calm,Calm,-,N/A,,Clear,0,2013-05-13 08:54:00
4:54 AM,46.9,39.0,74,30.09,10.0,SSE,3.5,-,N/A,,Clear,160,2013-05-13 09:54:00
5:54 AM,46.0,39.0,76,30.07,10.0,SE,4.6,-,N/A,,Clear,140,2013-05-13 10:54:00
6:54 AM,48.9,39.9,71,30.09,10.0,Calm,Calm,-,N/A,,Clear,0,2013-05-13 11:54:00
7:54 AM,53.1,44.1,71,30.08,10.0,South,6.9,-,N/A,,Clear,170,2013-05-13 12:54:00
8:54 AM,61.0,42.1,50,30.07,10.0,South,15.0,19.6,N/A,,Clear,190,2013-05-13 13:54:00
9:54 AM,64.9,43.0,45,30.04,10.0,South,16.1,-,N/A,,Clear,180,2013-05-13 14:54:00
10:54 AM,68.0,45.0,43,30.04,10.0,South,11.5,18.4,N/A,,Clear,180,2013-05-13 15:54:00
11:54 AM,73.0,48.0,41,30.02,10.0,SSE,15.0,19.6,N/A,,Clear,160,2013-05-13 16:54:00
12:54 PM,77.0,48.0,36,29.99,10.0,South,12.7,21.9,N/A,,Clear,170,2013-05-13 17:54:00
1:54 PM,80.1,45.0,29,29.96,10.0,SSW,17.3,20.7,N/A,,Clear,210,2013-05-13 18:54:00
3:54 PM,82.9,42.1,24,29.91,10.0,South,20.7,27.6,N/A,,Clear,190,2013-05-13 20:54:00
4:54 PM,84.0,42.1,23,29.89,10.0,SSW,18.4,26.5,N/A,,Clear,210,2013-05-13 21:54:00
5:54 PM,82.9,45.0,26,29.88,10.0,SW,19.6,-,N/A,,Clear,220,2013-05-13 22:54:00
6:54 PM,80.6,48.2,32,29.88,10.0,SSW,13.8,20.7,N/A,,Clear,200,2013-05-13 23:54:00
7:54 PM,77.0,48.9,37,29.85,10.0,SSW,11.5,-,N/A,,Clear,200,2013-05-14 00:54:00
8:54 PM,75.0,50.0,41,29.85,10.0,South,10.4,-,N/A,,Clear,190,2013-05-14 01:54:00
9:54 PM,71.1,53.1,53,29.85,10.0,South,10.4,-,N/A,,Clear,190,2013-05-14 02:54:00
10:54 PM,71.1,54.0,55,29.85,10.0,SSW,10.4,-,N/A,,Clear,210,2013-05-14 03:54:00
11:54 PM,69.1,54.0,58,29.84,10.0,SSW,9.2,-,N/A,,Clear,210,2013-05-14 04:54:00